Portada
METAR-TAF:

METAR-TAF

Aeroports :

Al-Kuwait, Kuwait

latitud: 29-13N, longitud: 047-59E, altitud: 55 m

Observació

L'informe es va fer fa 57 minuts, a les 09:00 UTC
Vent 4 kt del Nord-Est
Temperatura 29°C
Humitat 40%
Pressió 1010 hPa
Visibilitat: 6000 m

METAR: OKBK 020900Z 05004KT 6000 NSC 29/14 Q1010 NOSIG

Hora: 12:57 (09:57 UTC)

Pronòstic

L'informe es va fer fa 5 hores i 12 minuts, a les 04:45 UTC
Pronòstic vàlid del 02 a les 06 UTC al 03 a les 12 UTC
Vent 10 kt del Nord/Nord-Est
Visibilitat: 7000 m
Temporalment
l' 02 a les 06 UTC al 02 a les 18 UTC
Vent 3 kt amb direcció variable
Visibilitat: 4000 m
calitja

TAF: OKBK 020445Z 0206/0312 02010KT 7000 NSC TEMPO 0206/0218 VRB03KT 4000 HZ

Observacions i pronòstics meteorològics de més de 4000 aeroports (METAR i TAF).

Les estacions disponibles són els punts grocs i vermells al mapa.

Posi el ratolí al punt desitjat per veure el nom de l'estació.

Feu clic per veure les observacions i els pronòstics meteorològics.

Per canviar el mapa: feu clic els botons verds amb una creu de color negre per apropar; al botó verd amb un guió per allunyar la imatge; o en les fletxes verdes per a mapes adjacents.


METAR-TAF: